Time;durP1;ratioP1;P1;durP2;ratioP2;P2;SDS_P1;SDS_P2;PMS_P1;PMS_P2;Temp;Humidity;BMP_temperature;BMP_pressure;BME280_temperature;BME280_humidity;BME280_pressure;Samples;Min_cycle;Max_cycle;Signal;HPM_P1;HPM_P2
2022/06/05 00:00:10;;;;;;;;;;;;;;;21.77;75.06;100115.25;5068209;28;19923;-28
2022/06/05 00:02:53;;;;;;;;;;;;;;;21.74;75.67;100117.72;5067798;28;19916;-30
2022/06/05 00:05:22;;;;;;;;;;;;;;;21.77;74.83;100111.72;5067750;28;19924;-30
2022/06/05 00:07:53;;;;;;;;;;;;;;;21.60;75.62;100107.59;5067767;28;20311;-31
2022/06/05 00:10:23;;;;;;;;;;;;;;;21.48;75.64;100107.22;5067799;28;19970;-29
2022/06/05 00:13:00;;;;;;;;;;;;;;;21.22;77.10;100123.75;5067427;28;20388;-28
2022/06/05 00:15:25;;;;;;;;;;;;;;;21.22;76.70;100117.53;5066489;28;19912;-29
2022/06/05 00:17:51;;;;;;;;;;;;;;;21.14;77.53;100120.88;5067673;28;19916;-30
2022/06/05 00:20:16;;;;;;;;;;;;;;;20.98;78.09;100120.22;5067602;28;19916;-31
2022/06/05 00:22:42;;;;;;;;;;;;;;;20.91;78.49;100115.13;5067619;28;20618;-30
2022/06/05 00:25:08;;;;;;;;;;;;;;;20.80;78.45;100117.16;5067433;28;20021;-28
2022/06/05 00:27:40;;;;;;;;;;;;;;;20.74;79.40;100123.72;5066226;28;19912;-28
2022/06/05 00:30:21;;;;;;;;;;;;;;;20.85;79.09;100119.00;5067555;28;19912;-28
2022/06/05 00:33:09;;;;;;;;;;;;;;;20.76;79.73;100135.06;5067676;28;19920;-28
2022/06/05 00:35:42;;;;;;;;;;;;;;;20.45;82.02;100132.59;5061250;28;20379;-28
2022/06/05 00:38:15;;;;;;;;;;;;;;;20.47;82.50;100130.41;5067682;28;19916;-31
2022/06/05 00:41:03;;;;;;;;;;;;;;;20.51;83.05;100140.66;5067062;28;19924;-28
2022/06/05 00:43:28;;;;;;;;;;;;;;;20.42;83.60;100141.28;5047266;28;20642;-29
2022/06/05 00:45:55;;;;;;;;;;;;;;;20.70;82.75;100132.66;5067504;28;19912;-33
2022/06/05 00:48:20;;;;;;;;;;;;;;;20.93;81.16;100131.13;5067554;28;19912;-28
2022/06/05 00:50:48;;;;;;;;;;;;;;;20.62;82.02;100126.00;5067225;28;20649;-28
2022/06/05 00:53:13;;;;;;;;;;;;;;;20.66;82.10;100125.13;5067744;28;19916;-28
2022/06/05 00:55:41;;;;;;;;;;;;;;;20.57;82.89;100124.06;5067212;28;19923;-29
2022/06/05 00:58:07;;;;;;;;;;;;;;;20.55;83.20;100120.84;5065958;28;20704;-29
2022/06/05 01:00:34;;;;;;;;;;;;;;;20.55;83.10;100114.63;5065908;28;20462;-31
2022/06/05 01:03:02;;;;;;;;;;;;;;;20.56;83.06;100132.50;5067302;28;19951;-29
2022/06/05 01:05:28;;;;;;;;;;;;;;;20.47;83.71;100126.88;5067191;28;19964;-31
2022/06/05 01:07:54;;;;;;;;;;;;;;;20.39;83.71;100122.06;5065767;28;19955;-28
2022/06/05 01:10:21;;;;;;;;;;;;;;;20.53;82.67;100116.81;5067549;28;19975;-28
2022/06/05 01:12:49;;;;;;;;;;;;;;;20.36;83.37;100114.50;5066831;28;19913;-30
2022/06/05 01:15:43;;;;;;;;;;;;;;;20.26;83.72;100112.69;5067225;28;19916;-28
2022/06/05 01:18:09;;;;;;;;;;;;;;;20.09;84.59;100118.50;5029487;28;19936;-31
2022/06/05 01:20:49;;;;;;;;;;;;;;;20.15;83.75;100113.88;5065185;28;20380;-29
2022/06/05 01:23:33;;;;;;;;;;;;;;;20.01;84.59;100121.81;5068264;28;19920;-29
2022/06/05 01:26:31;;;;;;;;;;;;;;;20.06;84.55;100113.63;5069429;28;19920;-31
2022/06/05 01:29:00;;;;;;;;;;;;;;;19.96;84.65;100114.53;5040645;28;20009;-30
2022/06/05 01:31:26;;;;;;;;;;;;;;;19.99;84.43;100113.16;5071231;28;19985;-28
2022/06/05 01:33:56;;;;;;;;;;;;;;;20.00;83.88;100123.69;5070737;28;20326;-29
2022/06/05 01:36:34;;;;;;;;;;;;;;;20.37;82.61;100129.66;5070414;28;19924;-31
2022/06/05 01:39:02;;;;;;;;;;;;;;;20.41;81.95;100136.97;5070572;28;20377;-30
2022/06/05 01:41:32;;;;;;;;;;;;;;;20.39;81.66;100133.72;5070461;28;19912;-28
2022/06/05 01:43:58;;;;;;;;;;;;;;;20.46;81.29;100134.19;5070847;28;19916;-28
2022/06/05 01:46:29;;;;;;;;;;;;;;;20.14;82.66;100125.78;5069163;28;19916;-31
2022/06/05 01:49:02;;;;;;;;;;;;;;;20.01;83.48;100128.00;5070452;28;19916;-28
2022/06/05 01:51:33;;;;;;;;;;;;;;;20.41;81.20;100136.13;5070362;28;19969;-28
2022/06/05 01:54:00;;;;;;;;;;;;;;;20.48;81.06;100137.44;5070294;28;19916;-31
2022/06/05 01:56:29;;;;;;;;;;;;;;;20.55;80.84;100142.53;5070372;28;19948;-28
2022/06/05 01:59:20;;;;;;;;;;;;;;;20.14;82.67;100136.59;5070026;28;19916;-31
2022/06/05 02:01:48;;;;;;;;;;;;;;;19.83;84.16;100131.38;5043920;28;19916;-28
2022/06/05 02:04:19;;;;;;;;;;;;;;;19.69;85.21;100117.59;5068588;28;19923;-28
2022/06/05 02:06:47;;;;;;;;;;;;;;;19.86;84.60;100123.50;5070006;28;19916;-34
2022/06/05 02:09:35;;;;;;;;;;;;;;;19.76;84.69;100120.06;5070141;28;20015;-30
2022/06/05 02:12:02;;;;;;;;;;;;;;;19.88;84.41;100128.66;5064286;28;19919;-31
2022/06/05 02:14:28;;;;;;;;;;;;;;;19.82;84.37;100127.06;5069870;28;20448;-29
2022/06/05 02:16:53;;;;;;;;;;;;;;;19.97;83.86;100126.97;5069667;28;19916;-31
2022/06/05 02:19:21;;;;;;;;;;;;;;;20.27;82.43;100125.16;5070428;28;20025;-29
2022/06/05 02:21:47;;;;;;;;;;;;;;;20.48;80.99;100123.88;5068493;28;19916;-28
2022/06/05 02:24:13;;;;;;;;;;;;;;;20.69;80.07;100131.88;5070206;28;19939;-32
2022/06/05 02:26:38;;;;;;;;;;;;;;;20.83;78.81;100110.34;5067849;28;19965;-29
2022/06/05 02:29:06;;;;;;;;;;;;;;;20.41;80.54;100112.59;5068370;28;19917;-28
2022/06/05 02:31:47;;;;;;;;;;;;;;;20.34;81.92;100112.09;5068064;28;20403;-28
2022/06/05 02:34:12;;;;;;;;;;;;;;;20.33;81.69;100113.19;5069194;28;20308;-29
2022/06/05 02:36:50;;;;;;;;;;;;;;;20.52;80.65;100107.09;5069428;28;19927;-28
2022/06/05 02:39:18;;;;;;;;;;;;;;;20.53;80.47;100105.97;5068226;28;19916;-32
2022/06/05 02:41:55;;;;;;;;;;;;;;;20.27;82.04;100100.78;5069486;28;19916;-29
2022/06/05 02:44:29;;;;;;;;;;;;;;;19.95;83.68;100096.66;5069577;28;19916;-28
2022/06/05 02:47:13;;;;;;;;;;;;;;;20.00;84.08;100099.34;5067858;28;19912;-31
2022/06/05 02:49:56;;;;;;;;;;;;;;;20.25;82.57;100109.19;5069491;28;19955;-29
2022/06/05 02:52:22;;;;;;;;;;;;;;;20.32;82.24;100116.16;5069244;28;19920;-30
2022/06/05 02:54:51;;;;;;;;;;;;;;;20.56;81.22;100121.69;5069358;28;19912;-29
2022/06/05 02:57:17;;;;;;;;;;;;;;;20.15;82.87;100116.56;5069316;28;19916;-32
2022/06/05 02:59:42;;;;;;;;;;;;;;;20.40;81.23;100119.06;5069302;28;19923;-29
2022/06/05 03:04:51;;;;;;;;;;;;;;;20.47;81.31;100129.59;5069129;28;20330;-28
2022/06/05 03:07:16;;;;;;;;;;;;;;;20.20;83.28;100125.44;5069380;28;19917;-29
2022/06/05 03:09:42;;;;;;;;;;;;;;;20.32;82.40;100116.16;5069072;28;19920;-30
2022/06/05 03:12:08;;;;;;;;;;;;;;;20.65;80.99;100115.38;5068652;28;19986;-29
2022/06/05 03:14:33;;;;;;;;;;;;;;;20.89;79.46;100116.53;5050691;28;19931;-33
2022/06/05 03:16:58;;;;;;;;;;;;;;;21.13;78.47;100120.06;5068645;28;20384;-28
2022/06/05 03:19:24;;;;;;;;;;;;;;;20.93;78.84;100114.84;5068758;28;19917;-28
2022/06/05 03:21:49;;;;;;;;;;;;;;;20.83;79.31;100119.28;5068841;28;19916;-29
2022/06/05 03:24:15;;;;;;;;;;;;;;;20.84;79.94;100125.50;5068849;28;19982;-30
2022/06/05 03:26:40;;;;;;;;;;;;;;;21.09;78.53;100124.44;5068517;28;20771;-32
2022/06/05 03:29:07;;;;;;;;;;;;;;;21.10;78.18;100120.63;5068590;28;20285;-28
2022/06/05 03:31:33;;;;;;;;;;;;;;;21.02;77.77;100127.50;5068489;28;19916;-29
2022/06/05 03:33:58;;;;;;;;;;;;;;;21.12;77.13;100123.84;5068059;28;19920;-28
2022/06/05 03:36:24;;;;;;;;;;;;;;;21.30;75.57;100129.66;5068424;28;20445;-31
2022/06/05 03:38:49;;;;;;;;;;;;;;;20.95;76.15;100118.09;5067886;28;19916;-35
2022/06/05 03:41:15;;;;;;;;;;;;;;;20.69;78.07;100140.00;5068541;28;19912;-28
2022/06/05 03:43:41;;;;;;;;;;;;;;;20.61;78.84;100133.28;5066843;28;20361;-30
2022/06/05 03:46:09;;;;;;;;;;;;;;;20.73;78.84;100135.63;5067566;28;19921;-30
2022/06/05 03:48:35;;;;;;;;;;;;;;;20.45;80.54;100124.47;5068020;28;20349;-28
2022/06/05 03:51:04;;;;;;;;;;;;;;;20.51;80.79;100119.00;5066852;28;19921;-29
2022/06/05 03:53:29;;;;;;;;;;;;;;;20.69;80.61;100115.63;5068382;28;19916;-28
2022/06/05 03:55:55;;;;;;;;;;;;;;;20.71;80.45;100118.84;5068137;28;19982;-30
2022/06/05 03:58:20;;;;;;;;;;;;;;;20.93;79.75;100112.94;5068008;28;20493;-29
2022/06/05 04:00:45;;;;;;;;;;;;;;;20.96;80.28;100109.66;5067477;28;20003;-29
2022/06/05 04:03:11;;;;;;;;;;;;;;;21.01;79.13;100106.09;5067866;28;19922;-30
2022/06/05 04:05:36;;;;;;;;;;;;;;;21.00;80.07;100099.88;5068042;28;19959;-28
2022/06/05 04:08:01;;;;;;;;;;;;;;;21.07;80.08;100105.75;5068046;28;19916;-33
2022/06/05 04:10:27;;;;;;;;;;;;;;;21.22;78.87;100104.75;5067954;28;19916;-29
2022/06/05 04:12:52;;;;;;;;;;;;;;;21.21;79.28;100114.00;5067282;28;19916;-32
2022/06/05 04:15:18;;;;;;;;;;;;;;;21.13;79.22;100103.00;5067783;28;19912;-29
2022/06/05 04:17:43;;;;;;;;;;;;;;;21.26;79.08;100097.66;5067394;28;19912;-29
2022/06/05 04:20:09;;;;;;;;;;;;;;;21.54;78.06;100092.47;5067690;28;19916;-31
2022/06/05 04:22:35;;;;;;;;;;;;;;;21.70;77.82;100101.22;5067502;28;19917;-30
2022/06/05 04:25:01;;;;;;;;;;;;;;;21.81;76.86;100110.03;5067615;28;19920;-28
2022/06/05 04:27:26;;;;;;;;;;;;;;;21.90;77.21;100113.69;5049557;28;19913;-29
2022/06/05 04:29:51;;;;;;;;;;;;;;;21.83;77.18;100110.56;5067844;28;20102;-29
2022/06/05 04:32:17;;;;;;;;;;;;;;;21.74;78.04;100104.16;5067391;28;20451;-29
2022/06/05 04:34:42;;;;;;;;;;;;;;;21.54;78.84;100103.34;5066807;28;19921;-33
2022/06/05 04:37:08;;;;;;;;;;;;;;;21.69;78.76;100093.38;5049589;28;20026;-34
2022/06/05 04:39:33;;;;;;;;;;;;;;;21.72;77.52;100092.78;5067371;28;19939;-31
2022/06/05 04:41:59;;;;;;;;;;;;;;;21.66;78.32;100090.16;5067541;28;20391;-29
2022/06/05 04:44:24;;;;;;;;;;;;;;;21.71;77.46;100091.19;5067471;28;20846;-28
2022/06/05 04:46:51;;;;;;;;;;;;;;;22.06;75.80;100081.69;5067165;28;20417;-29
2022/06/05 04:49:17;;;;;;;;;;;;;;;22.14;74.93;100082.94;5066249;28;19916;-31
2022/06/05 04:51:42;;;;;;;;;;;;;;;22.30;74.43;100092.50;5067494;28;19923;-31
2022/06/05 04:54:08;;;;;;;;;;;;;;;22.29;74.62;100088.16;5066181;28;19935;-34
2022/06/05 04:56:34;;;;;;;;;;;;;;;22.26;74.47;100083.31;5065652;28;20425;-30
2022/06/05 04:59:00;;;;;;;;;;;;;;;22.45;74.98;100065.09;5071158;28;19916;-30
2022/06/05 05:01:27;;;;;;;;;;;;;;;22.59;72.52;100083.31;5071186;28;19916;-28
2022/06/05 05:03:54;;;;;;;;;;;;;;;22.66;72.27;100086.47;5071433;28;19919;-28
2022/06/05 05:06:19;;;;;;;;;;;;;;;22.59;72.57;100083.31;5071271;28;19913;-31
2022/06/05 05:08:44;;;;;;;;;;;;;;;22.76;73.15;100089.00;5071048;28;19939;-28
2022/06/05 05:11:10;;;;;;;;;;;;;;;22.78;72.45;100100.38;5071631;28;20466;-29
2022/06/05 05:13:35;;;;;;;;;;;;;;;23.03;71.54;100090.97;5071180;28;19912;-29
2022/06/05 05:16:00;;;;;;;;;;;;;;;23.31;70.86;100079.25;5071390;28;19912;-29
2022/06/05 05:18:26;;;;;;;;;;;;;;;23.19;70.00;100077.06;5070790;28;19920;-28
2022/06/05 05:20:51;;;;;;;;;;;;;;;23.12;71.17;100077.47;5070741;28;20398;-29
2022/06/05 05:23:18;;;;;;;;;;;;;;;23.05;71.44;100080.59;5070760;28;19916;-34
2022/06/05 05:25:44;;;;;;;;;;;;;;;23.25;72.19;100079.38;5071137;28;19917;-35
2022/06/05 05:28:09;;;;;;;;;;;;;;;23.51;70.55;100073.41;5071193;28;19912;-32
2022/06/05 05:30:34;;;;;;;;;;;;;;;23.44;70.14;100070.28;5070475;28;20319;-29
2022/06/05 05:33:00;;;;;;;;;;;;;;;23.37;72.70;100072.59;5070856;28;19917;-31
2022/06/05 05:35:25;;;;;;;;;;;;;;;23.63;70.66;100079.13;5070428;28;19921;-29
2022/06/05 05:37:50;;;;;;;;;;;;;;;23.61;69.32;100075.09;5070857;28;20372;-29
2022/06/05 05:43:00;;;;;;;;;;;;;;;23.97;68.50;100064.22;5071055;28;20020;-28
2022/06/05 05:45:25;;;;;;;;;;;;;;;24.05;67.82;100066.22;5068942;28;20494;-29
2022/06/05 05:47:50;;;;;;;;;;;;;;;24.09;68.32;100057.41;5070629;28;19916;-28
2022/06/05 05:50:16;;;;;;;;;;;;;;;24.22;67.76;100057.34;5070879;28;19912;-29
2022/06/05 05:52:42;;;;;;;;;;;;;;;24.04;68.47;100056.41;5070366;28;20382;-28
2022/06/05 05:55:16;;;;;;;;;;;;;;;24.16;68.04;100060.53;5070484;28;19916;-28
2022/06/05 05:57:41;;;;;;;;;;;;;;;24.22;67.34;100062.00;5070205;28;19965;-33
2022/06/05 06:00:09;;;;;;;;;;;;;;;24.26;67.35;100068.44;5070301;28;19920;-31
2022/06/05 06:02:35;;;;;;;;;;;;;;;24.51;67.70;100075.19;5068663;28;19923;-29
2022/06/05 06:05:00;;;;;;;;;;;;;;;24.53;68.03;100063.97;5070361;28;19935;-30
2022/06/05 06:07:26;;;;;;;;;;;;;;;24.63;67.43;100071.91;5070305;28;19912;-30
2022/06/05 06:09:51;;;;;;;;;;;;;;;24.66;66.31;100069.34;5069062;28;19918;-29
2022/06/05 06:12:16;;;;;;;;;;;;;;;24.61;67.83;100072.19;5069799;28;19920;-30
2022/06/05 06:14:41;;;;;;;;;;;;;;;24.63;66.93;100072.69;5070026;28;19935;-29
2022/06/05 06:17:07;;;;;;;;;;;;;;;24.81;66.27;100070.06;5070111;28;19917;-29
2022/06/05 06:19:33;;;;;;;;;;;;;;;24.96;64.85;100069.63;5070063;28;19920;-37
2022/06/05 06:21:58;;;;;;;;;;;;;;;24.60;67.55;100067.06;5070044;28;19955;-28
2022/06/05 06:24:23;;;;;;;;;;;;;;;24.77;67.38;100064.44;5070010;28;19962;-28
2022/06/05 06:26:49;;;;;;;;;;;;;;;25.13;66.01;100052.53;5051656;28;19916;-30
2022/06/05 06:29:14;;;;;;;;;;;;;;;25.41;66.18;100063.22;5069975;28;19916;-28
2022/06/05 06:31:40;;;;;;;;;;;;;;;25.72;64.00;100056.81;5069930;28;19989;-29
2022/06/05 06:34:05;;;;;;;;;;;;;;;25.79;64.29;100051.69;5069584;28;19924;-32
2022/06/05 06:36:32;;;;;;;;;;;;;;;25.65;62.99;100047.19;5069493;28;19931;-34
2022/06/05 06:38:58;;;;;;;;;;;;;;;25.60;64.36;100039.16;5069413;28;19912;-30
2022/06/05 06:41:23;;;;;;;;;;;;;;;25.64;64.52;100040.13;5069376;28;19912;-30
2022/06/05 06:43:49;;;;;;;;;;;;;;;25.90;64.09;100044.78;5069395;28;19919;-28
2022/06/05 06:46:15;;;;;;;;;;;;;;;25.71;63.28;100044.31;5067996;28;19969;-29
2022/06/05 06:48:40;;;;;;;;;;;;;;;26.08;62.55;100045.59;5068951;28;20714;-28
2022/06/05 06:51:06;;;;;;;;;;;;;;;26.29;61.58;100040.25;5069399;28;19916;-37
2022/06/05 06:53:33;;;;;;;;;;;;;;;26.16;63.43;100043.97;5069271;28;19939;-30
2022/06/05 06:55:58;;;;;;;;;;;;;;;26.11;62.99;100052.34;5069031;28;20376;-28
2022/06/05 06:58:24;;;;;;;;;;;;;;;26.45;63.06;100046.78;5067889;28;19923;-32
2022/06/05 07:00:49;;;;;;;;;;;;;;;26.55;60.76;100045.66;5068917;28;19923;-28
2022/06/05 07:03:15;;;;;;;;;;;;;;;26.14;62.19;100038.84;5069191;28;19912;-28
2022/06/05 07:05:40;;;;;;;;;;;;;;;26.45;62.13;100052.25;5067666;28;20343;-30
2022/06/05 07:08:07;;;;;;;;;;;;;;;26.59;59.64;100045.84;5067591;28;19916;-29
2022/06/05 07:10:33;;;;;;;;;;;;;;;26.66;60.63;100046.13;5068793;28;19916;-39
2022/06/05 07:12:58;;;;;;;;;;;;;;;26.65;61.70;100039.06;5068659;28;20288;-30
2022/06/05 07:15:23;;;;;;;;;;;;;;;26.77;60.56;100035.63;5069467;28;20395;-29
2022/06/05 07:17:49;;;;;;;;;;;;;;;26.92;60.02;100037.81;5051052;28;20403;-31
2022/06/05 07:20:14;;;;;;;;;;;;;;;27.12;60.11;100027.25;5068841;28;19912;-29
2022/06/05 07:22:40;;;;;;;;;;;;;;;27.11;60.30;100034.63;5068388;28;19973;-29
2022/06/05 07:25:05;;;;;;;;;;;;;;;27.08;58.08;100023.56;5050582;28;19923;-29
2022/06/05 07:27:31;;;;;;;;;;;;;;;27.33;57.84;100024.56;5069038;28;19916;-30
2022/06/05 07:29:56;;;;;;;;;;;;;;;27.57;58.26;100030.19;5068988;28;20027;-30
2022/06/05 07:32:22;;;;;;;;;;;;;;;27.69;56.79;100028.66;5068981;28;19920;-29
2022/06/05 07:34:47;;;;;;;;;;;;;;;27.82;57.48;100030.31;5066938;28;19951;-30
2022/06/05 07:37:16;;;;;;;;;;;;;;;28.04;55.74;100021.75;5068704;28;19912;-32
2022/06/05 07:39:42;;;;;;;;;;;;;;;28.13;56.38;100029.06;5066743;28;19970;-32
2022/06/05 07:42:08;;;;;;;;;;;;;;;28.09;55.72;100025.41;5050270;28;19924;-31
2022/06/05 07:44:35;;;;;;;;;;;;;;;28.02;55.43;100021.28;5067993;28;19935;-38
2022/06/05 07:47:04;;;;;;;;;;;;;;;28.12;56.32;100013.78;5050459;28;19970;-29
2022/06/05 07:49:30;;;;;;;;;;;;;;;28.13;55.22;100026.34;5050091;28;19913;-29
2022/06/05 07:54:39;;;;;;;;;;;;;;;28.66;53.12;100024.63;5067945;28;20572;-29
2022/06/05 07:57:06;;;;;;;;;;;;;;;28.66;53.45;100027.38;5068204;28;19916;-30
2022/06/05 07:59:36;;;;;;;;;;;;;;;28.71;51.92;100016.19;5068115;28;19923;-29
2022/06/05 08:02:04;;;;;;;;;;;;;;;28.40;53.11;100011.19;5066722;28;19920;-30
2022/06/05 08:04:29;;;;;;;;;;;;;;;28.70;53.24;100020.06;5067954;28;19913;-32
2022/06/05 08:06:56;;;;;;;;;;;;;;;28.72;52.71;100023.25;5066131;28;19919;-30
2022/06/05 08:09:21;;;;;;;;;;;;;;;28.89;53.20;100022.25;5066711;28;19920;-31
2022/06/05 08:11:47;;;;;;;;;;;;;;;29.39;51.88;100023.03;5067951;28;19986;-32
2022/06/05 08:14:13;;;;;;;;;;;;;;;29.87;51.10;100021.28;5068061;28;19923;-30
2022/06/05 08:16:43;;;;;;;;;;;;;;;29.85;48.73;100018.06;5067550;28;19916;-32
2022/06/05 08:19:09;;;;;;;;;;;;;;;29.82;49.35;100018.78;5066356;28;19916;-29
2022/06/05 08:21:34;;;;;;;;;;;;;;;29.90;48.56;100015.09;5066018;28;19919;-29
2022/06/05 08:23:59;;;;;;;;;;;;;;;29.91;48.93;100005.69;5068340;28;19912;-29
2022/06/05 08:26:25;;;;;;;;;;;;;;;30.00;48.21;100008.28;5067820;28;20470;-29
2022/06/05 08:28:50;;;;;;;;;;;;;;;30.05;48.43;100011.56;5067300;28;19922;-29
2022/06/05 08:31:15;;;;;;;;;;;;;;;30.36;48.87;100015.56;5067425;28;19916;-28
2022/06/05 08:33:41;;;;;;;;;;;;;;;30.80;48.14;100012.69;5067083;28;19927;-28
2022/06/05 08:36:06;;;;;;;;;;;;;;;30.81;46.34;100019.81;5067259;28;19920;-29
2022/06/05 08:41:28;;;;;;;;;;;;;;;31.09;45.46;100012.59;5067584;28;19923;-29
2022/06/05 08:44:00;;;;;;;;;;;;;;;30.92;47.07;100003.56;5067610;28;19916;-29
2022/06/05 08:46:29;;;;;;;;;;;;;;;30.88;45.41;100004.66;5067308;28;19916;-29
2022/06/05 08:48:56;;;;;;;;;;;;;;;30.94;45.79;100000.47;5067332;28;19916;-30
2022/06/05 08:51:27;;;;;;;;;;;;;;;31.18;45.03;100005.75;5067764;28;19966;-29
2022/06/05 08:53:55;;;;;;;;;;;;;;;31.48;45.53;99996.94;5065981;28;19993;-30
2022/06/05 08:56:31;;;;;;;;;;;;;;;31.66;43.64;99991.00;5049157;28;20380;-33
2022/06/05 08:59:20;;;;;;;;;;;;;;;31.58;45.05;99990.06;5065423;28;20323;-32
2022/06/05 09:01:48;;;;;;;;;;;;;;;31.14;45.50;99987.53;5061547;28;19912;-29
2022/06/05 09:04:23;;;;;;;;;;;;;;;31.23;45.54;99986.16;5067422;28;19917;-31
2022/06/05 09:06:50;;;;;;;;;;;;;;;31.41;45.01;99981.03;5065531;28;20354;-29
2022/06/05 09:09:39;;;;;;;;;;;;;;;31.52;44.68;99981.28;5066935;28;19916;-31
2022/06/05 09:12:23;;;;;;;;;;;;;;;31.87;44.63;99972.09;5061147;28;20418;-34
2022/06/05 09:14:55;;;;;;;;;;;;;;;31.97;42.97;99971.50;5066896;28;19920;-28
2022/06/05 09:17:21;;;;;;;;;;;;;;;32.41;43.31;99971.13;5065610;28;20406;-36
2022/06/05 09:19:48;;;;;;;;;;;;;;;31.88;43.73;99970.97;5067043;28;19912;-28
2022/06/05 09:22:18;;;;;;;;;;;;;;;32.13;43.25;99970.66;5067349;28;19916;-29
2022/06/05 09:24:43;;;;;;;;;;;;;;;31.78;43.41;99966.84;5066852;28;19999;-33
2022/06/05 09:27:22;;;;;;;;;;;;;;;31.89;43.17;99961.50;5067215;28;20023;-33
2022/06/05 09:29:56;;;;;;;;;;;;;;;32.25;42.89;99962.19;5067133;28;19922;-29
2022/06/05 09:32:21;;;;;;;;;;;;;;;32.37;42.80;99964.75;5066911;28;20025;-30
2022/06/05 09:35:10;;;;;;;;;;;;;;;32.63;41.94;99961.25;5066800;28;20411;-33
2022/06/05 09:37:54;;;;;;;;;;;;;;;32.77;41.90;99951.59;5047199;28;19916;-32
2022/06/05 09:40:30;;;;;;;;;;;;;;;32.79;41.83;99940.97;5067034;28;19920;-34
2022/06/05 09:43:14;;;;;;;;;;;;;;;32.98;40.38;99956.63;5066664;28;19927;-30
2022/06/05 09:45:40;;;;;;;;;;;;;;;32.87;42.94;99947.38;5069781;28;20409;-30
2022/06/05 09:48:24;;;;;;;;;;;;;;;33.05;40.60;99945.66;5070566;28;19916;-33
2022/06/05 09:50:49;;;;;;;;;;;;;;;33.44;40.23;99934.34;5070617;28;20008;-31
2022/06/05 09:53:17;;;;;;;;;;;;;;;33.32;40.61;99940.09;5070365;28;20039;-30
2022/06/05 09:55:45;;;;;;;;;;;;;;;32.92;40.60;99936.03;5070509;28;19912;-33
2022/06/05 09:58:25;;;;;;;;;;;;;;;33.17;40.81;99931.66;5070541;28;19916;-33
2022/06/05 10:00:53;;;;;;;;;;;;;;;34.01;39.52;99923.88;5070162;28;19916;-32
2022/06/05 10:03:24;;;;;;;;;;;;;;;34.08;38.78;99930.66;5070397;28;20376;-29
2022/06/05 10:06:10;;;;;;;;;;;;;;;34.42;38.36;99923.84;5069662;28;19938;-31
2022/06/05 10:08:43;;;;;;;;;;;;;;;34.49;38.10;99916.78;5069801;28;19923;-32
2022/06/05 10:11:24;;;;;;;;;;;;;;;34.17;40.66;99912.59;5069991;28;20406;-34
2022/06/05 10:13:58;;;;;;;;;;;;;;;34.08;38.87;99914.84;5068386;28;19912;-29
2022/06/05 10:16:27;;;;;;;;;;;;;;;33.57;39.78;99902.50;5070076;28;19912;-31
2022/06/05 10:19:11;;;;;;;;;;;;;;;33.52;39.93;99886.25;5069715;28;20618;-30
2022/06/05 10:21:41;;;;;;;;;;;;;;;33.61;39.58;99905.31;5070024;28;19913;-29
2022/06/05 10:24:09;;;;;;;;;;;;;;;33.70;41.41;99899.50;5068331;28;19920;-30
2022/06/05 10:26:39;;;;;;;;;;;;;;;34.34;38.21;99889.00;5067857;28;20490;-36
2022/06/05 10:29:10;;;;;;;;;;;;;;;34.71;38.03;99882.53;5068365;28;20023;-30
2022/06/05 10:31:36;;;;;;;;;;;;;;;34.97;37.84;99880.69;5068068;28;19912;-30
2022/06/05 10:34:04;;;;;;;;;;;;;;;34.87;37.49;99881.41;5069430;28;19924;-34
2022/06/05 10:36:45;;;;;;;;;;;;;;;34.59;36.23;99885.59;5069126;28;19986;-37
2022/06/05 10:39:13;;;;;;;;;;;;;;;35.10;35.12;99879.13;5067964;28;21151;-33
2022/06/05 10:42:01;;;;;;;;;;;;;;;35.63;33.54;99871.38;5069640;28;19919;-32
2022/06/05 10:44:35;;;;;;;;;;;;;;;35.52;34.29;99861.06;5069358;28;19985;-34
2022/06/05 10:47:06;;;;;;;;;;;;;;;34.41;35.35;99861.38;5069178;28;20026;-30
2022/06/05 10:49:44;;;;;;;;;;;;;;;34.74;36.11;99845.75;5068890;28;19920;-34
2022/06/05 10:52:14;;;;;;;;;;;;;;;34.96;35.00;99854.13;5069201;28;19966;-35
2022/06/05 10:54:49;;;;;;;;;;;;;;;34.88;33.32;99833.94;5068329;28;19984;-35
2022/06/05 10:57:34;;;;;;;;;;;;;;;35.54;33.03;99830.97;5069149;28;19960;-29
2022/06/05 11:00:00;;;;;;;;;;;;;;;36.18;32.77;99832.19;5068122;28;19912;-29
2022/06/05 11:02:40;;;;;;;;;;;;;;;35.30;33.97;99815.09;5068917;28;19917;-30
2022/06/05 11:05:06;;;;;;;;;;;;;;;34.38;33.16;99828.91;5068445;28;19916;-33
2022/06/05 11:07:53;;;;;;;;;;;;;;;34.61;32.83;99825.06;5068752;28;19927;-29
2022/06/05 11:13:42;;;;;;;;;;;;;;;34.92;31.02;99817.31;5068581;28;19962;-31
2022/06/05 11:16:28;;;;;;;;;;;;;;;34.90;31.01;99814.97;5048469;28;19916;-36
2022/06/05 11:19:12;;;;;;;;;;;;;;;35.52;31.39;99818.69;5066676;28;20196;-35
2022/06/05 11:21:41;;;;;;;;;;;;;;;35.78;30.98;99814.78;5068153;28;19973;-33
2022/06/05 11:24:07;;;;;;;;;;;;;;;36.24;28.11;99811.16;5066779;28;20029;-30
2022/06/05 11:26:46;;;;;;;;;;;;;;;36.30;27.68;99812.34;5068081;28;20429;-35
2022/06/05 11:29:24;;;;;;;;;;;;;;;35.41;27.84;99796.47;5068184;28;19915;-30
2022/06/05 11:31:52;;;;;;;;;;;;;;;35.36;28.55;99796.88;5067791;28;19994;-31
2022/06/05 11:34:18;;;;;;;;;;;;;;;36.01;29.57;99797.69;5066586;28;19924;-39
2022/06/05 11:37:10;;;;;;;;;;;;;;;36.24;29.63;99794.50;5067508;28;19989;-33
2022/06/05 11:39:42;;;;;;;;;;;;;;;36.15;28.78;99785.81;5066567;28;19924;-29
2022/06/05 11:42:21;;;;;;;;;;;;;;;36.23;29.40;99792.13;5066610;28;20109;-31
2022/06/05 11:44:52;;;;;;;;;;;;;;;36.51;28.62;99791.25;5066508;28;20342;-34
2022/06/05 11:47:31;;;;;;;;;;;;;;;36.74;27.97;99799.94;5067223;28;19916;-33
2022/06/05 11:49:56;;;;;;;;;;;;;;;36.68;28.67;99784.06;5066038;28;19912;-36
2022/06/05 11:52:26;;;;;;;;;;;;;;;36.37;28.91;99787.34;5066176;28;19921;-32
2022/06/05 11:54:51;;;;;;;;;;;;;;;36.20;27.58;99788.16;5066070;28;19938;-30
2022/06/05 11:57:46;;;;;;;;;;;;;;;36.01;29.11;99787.38;5067515;28;20392;-31
2022/06/05 12:00:25;;;;;;;;;;;;;;;35.94;27.27;99781.84;5058170;28;19922;-30
2022/06/05 12:02:53;;;;;;;;;;;;;;;36.28;28.21;99767.53;5065850;28;20365;-31
2022/06/05 12:05:21;;;;;;;;;;;;;;;37.08;27.39;99763.19;5065940;28;19985;-32
2022/06/05 12:07:48;;;;;;;;;;;;;;;37.42;25.67;99767.38;5065273;28;19963;-29
2022/06/05 12:10:28;;;;;;;;;;;;;;;37.95;25.59;99769.72;5067358;28;19998;-30
2022/06/05 12:13:23;;;;;;;;;;;;;;;37.40;26.34;99774.13;5048906;28;19916;-36
2022/06/05 12:15:58;;;;;;;;;;;;;;;37.52;23.84;99767.28;5057767;28;19923;-30
2022/06/05 12:18:30;;;;;;;;;;;;;;;37.79;22.55;99775.03;5065801;28;20197;-32
2022/06/05 12:21:14;;;;;;;;;;;;;;;37.82;24.08;99765.06;5066544;28;19920;-33
2022/06/05 12:23:53;;;;;;;;;;;;;;;37.03;23.38;99760.88;5067322;28;19916;-30
2022/06/05 12:26:19;;;;;;;;;;;;;;;36.56;24.78;99749.19;5065629;28;19968;-31
2022/06/05 12:28:47;;;;;;;;;;;;;;;36.96;23.14;99744.22;5066814;28;19970;-34
2022/06/05 12:31:13;;;;;;;;;;;;;;;36.69;23.29;99746.75;5066713;28;19935;-30
2022/06/05 12:33:48;;;;;;;;;;;;;;;36.67;22.99;99741.59;5065349;28;20372;-33
2022/06/05 12:36:13;;;;;;;;;;;;;;;37.02;23.82;99731.47;5066705;28;20014;-30
2022/06/05 12:38:49;;;;;;;;;;;;;;;37.06;23.94;99739.78;5066766;28;20019;-31
2022/06/05 12:41:15;;;;;;;;;;;;;;;37.18;23.43;99723.44;5065072;28;19990;-30
2022/06/05 12:43:40;;;;;;;;;;;;;;;37.07;23.61;99721.94;5066741;28;19955;-31
2022/06/05 12:46:24;;;;;;;;;;;;;;;37.49;23.08;99726.38;5064977;28;20407;-32
2022/06/05 12:48:49;;;;;;;;;;;;;;;36.98;24.51;99716.81;5066521;28;20337;-35
2022/06/05 12:51:18;;;;;;;;;;;;;;;37.08;24.42;99717.94;5066495;28;20008;-36
2022/06/05 12:53:52;;;;;;;;;;;;;;;36.65;24.20;99713.44;5065196;28;20047;-31
2022/06/05 12:56:26;;;;;;;;;;;;;;;36.62;25.16;99708.69;5066513;28;19919;-31
2022/06/05 12:58:52;;;;;;;;;;;;;;;36.98;22.29;99714.03;5066289;28;20638;-29
2022/06/05 13:01:19;;;;;;;;;;;;;;;37.82;22.22;99712.19;5066568;28;19912;-37
2022/06/05 13:03:45;;;;;;;;;;;;;;;37.63;22.59;99724.72;5066574;28;19965;-30
2022/06/05 13:06:13;;;;;;;;;;;;;;;37.20;23.40;99720.25;5066568;28;19916;-32